Time;durP1;ratioP1;P1;durP2;ratioP2;P2;SDS_P1;SDS_P2;PMS_P1;PMS_P2;Temp;Humidity;BMP_temperature;BMP_pressure;BME280_temperature;BME280_humidity;BME280_pressure;Samples;Min_cycle;Max_cycle;Signal;HPM_P1;HPM_P2
2021/11/18 00:01:31;;;;;;;16.20;14.97;;;6.60;99.90;;;;;;4948705;28;20207;-79
2021/11/18 00:04:07;;;;;;;16.00;14.80;;;6.60;99.90;;;;;;4946171;28;20194;-79
2021/11/18 00:06:34;;;;;;;16.20;14.90;;;6.60;99.90;;;;;;4955044;28;20668;-79
2021/11/18 00:09:00;;;;;;;16.67;15.37;;;6.60;99.90;;;;;;4954465;28;20216;-80
2021/11/18 00:11:29;;;;;;;16.23;14.93;;;6.60;99.90;;;;;;4951075;28;20687;-79
2021/11/18 00:13:56;;;;;;;16.10;14.80;;;6.60;99.90;;;;;;4949715;28;20641;-78
2021/11/18 00:16:24;;;;;;;16.30;15.00;;;6.60;99.90;;;;;;4948856;28;20226;-78
2021/11/18 00:18:51;;;;;;;16.47;15.07;;;6.50;99.90;;;;;;4951274;28;20200;-78
2021/11/18 00:21:21;;;;;;;17.93;16.33;;;6.50;99.90;;;;;;4951935;28;20261;-79
2021/11/18 00:23:50;;;;;;;16.87;15.43;;;6.50;99.90;;;;;;4948925;28;20207;-79
2021/11/18 00:26:18;;;;;;;17.13;15.87;;;6.50;99.90;;;;;;4946995;28;20259;-79
2021/11/18 00:28:47;;;;;;;17.77;16.37;;;6.50;99.90;;;;;;4947985;28;20264;-79
2021/11/18 00:31:15;;;;;;;16.67;15.37;;;6.60;99.90;;;;;;4950297;28;20261;-80
2021/11/18 00:33:43;;;;;;;16.60;15.10;;;6.60;99.90;;;;;;4949904;28;20211;-79
2021/11/18 00:36:10;;;;;;;16.80;15.40;;;6.60;99.90;;;;;;4949039;28;20250;-79
2021/11/18 00:38:38;;;;;;;16.90;15.50;;;6.60;99.90;;;;;;4953102;28;20282;-79
2021/11/18 00:41:06;;;;;;;16.97;15.50;;;6.60;99.90;;;;;;4955166;28;20266;-79
2021/11/18 00:43:33;;;;;;;16.67;15.37;;;6.60;99.90;;;;;;4953874;28;20231;-79
2021/11/18 00:46:02;;;;;;;16.17;14.87;;;6.60;99.90;;;;;;4952298;28;20203;-79
2021/11/18 00:48:29;;;;;;;16.80;15.30;;;6.60;99.90;;;;;;4935625;29;20207;-79
2021/11/18 00:50:58;;;;;;;15.77;14.57;;;6.60;99.90;;;;;;4934211;28;20203;-79
2021/11/18 00:53:26;;;;;;;16.30;15.00;;;6.60;99.90;;;;;;4950776;28;20282;-80
2021/11/18 00:55:57;;;;;;;16.13;14.93;;;6.60;99.90;;;;;;4949280;28;20305;-79
2021/11/18 00:58:26;;;;;;;15.80;14.40;;;6.50;99.90;;;;;;4945910;28;20286;-79
2021/11/18 01:00:53;;;;;;;17.30;15.73;;;6.60;99.90;;;;;;4945674;28;20292;-79
2021/11/18 01:03:25;;;;;;;16.57;15.20;;;6.60;99.90;;;;;;4949912;28;20227;-80
2021/11/18 01:05:54;;;;;;;16.50;15.20;;;6.60;99.90;;;;;;4949231;28;20582;-80
2021/11/18 01:08:22;;;;;;;16.83;15.53;;;6.70;99.90;;;;;;4947931;28;20589;-78
2021/11/18 01:10:51;;;;;;;17.23;15.80;;;6.70;99.90;;;;;;4949611;28;20220;-79
2021/11/18 01:13:19;;;;;;;16.73;15.33;;;6.70;99.90;;;;;;4951236;28;20230;-79
2021/11/18 01:15:47;;;;;;;17.47;15.97;;;6.60;99.90;;;;;;4949023;29;20574;-80
2021/11/18 01:18:17;;;;;;;16.00;14.77;;;6.70;99.90;;;;;;4947174;28;20207;-80
2021/11/18 01:20:47;;;;;;;15.27;14.17;;;6.70;99.90;;;;;;4949173;28;20279;-81
2021/11/18 01:23:15;;;;;;;16.20;15.00;;;6.70;99.90;;;;;;4948894;28;20310;-81
2021/11/18 01:25:43;;;;;;;15.97;14.87;;;6.70;99.90;;;;;;4952882;28;20298;-81
2021/11/18 01:28:12;;;;;;;15.67;14.43;;;6.70;99.90;;;;;;4951969;28;20220;-81
2021/11/18 01:30:41;;;;;;;15.23;14.13;;;6.70;99.90;;;;;;4954971;28;20236;-81
2021/11/18 01:33:10;;;;;;;15.57;14.37;;;6.70;99.90;;;;;;4954586;28;20318;-81
2021/11/18 01:35:42;;;;;;;16.23;15.00;;;6.70;99.90;;;;;;4962037;28;20215;-81
2021/11/18 01:38:11;;;;;;;16.40;15.10;;;6.70;99.90;;;;;;4956325;28;20285;-81
2021/11/18 01:40:43;;;;;;;16.23;14.93;;;6.70;99.90;;;;;;4950433;28;20209;-80
2021/11/18 01:43:27;;;;;;;16.83;15.43;;;6.70;99.90;;;;;;4949273;28;20219;-82
2021/11/18 01:45:54;;;;;;;15.87;14.60;;;6.70;99.90;;;;;;4951290;28;20203;-81
2021/11/18 01:48:22;;;;;;;15.40;14.20;;;6.70;99.90;;;;;;4953286;28;20207;-82
2021/11/18 01:50:52;;;;;;;15.73;14.53;;;6.70;99.90;;;;;;4949886;28;20194;-81
2021/11/18 01:53:23;;;;;;;15.53;14.33;;;6.70;99.90;;;;;;4955163;28;20239;-80
2021/11/18 01:55:50;;;;;;;15.30;13.83;;;6.70;99.90;;;;;;4950677;28;20208;-81
2021/11/18 01:58:18;;;;;;;15.87;14.67;;;6.70;99.90;;;;;;4953300;28;20227;-81
2021/11/18 02:01:12;;;;;;;15.33;14.20;;;6.70;99.90;;;;;;4953240;28;20191;-80
2021/11/18 02:03:39;;;;;;;15.70;14.50;;;6.70;99.90;;;;;;4956641;28;20196;-82
2021/11/18 02:06:38;;;;;;;16.20;14.73;;;6.70;99.90;;;;;;4950888;28;20551;-81
2021/11/18 02:09:13;;;;;;;15.73;14.43;;;6.70;99.90;;;;;;4947533;28;20219;-81
2021/11/18 02:11:43;;;;;;;15.67;14.37;;;6.70;99.90;;;;;;4951394;28;20251;-82
2021/11/18 02:14:16;;;;;;;15.63;14.43;;;6.70;99.90;;;;;;4951777;28;20199;-81
2021/11/18 02:16:45;;;;;;;16.47;15.17;;;6.70;99.90;;;;;;4954292;28;20224;-80
2021/11/18 02:19:13;;;;;;;16.60;15.10;;;6.70;99.90;;;;;;4954716;28;20206;-81
2021/11/18 02:21:48;;;;;;;16.47;15.17;;;6.70;99.90;;;;;;4950784;28;20222;-81
2021/11/18 02:24:20;;;;;;;15.60;14.40;;;6.70;99.90;;;;;;4949323;28;20202;-81
2021/11/18 02:26:51;;;;;;;16.80;15.40;;;6.70;99.90;;;;;;4947814;28;20223;-81
2021/11/18 02:29:20;;;;;;;16.77;15.37;;;6.70;99.90;;;;;;4947653;28;20207;-80
2021/11/18 02:31:55;;;;;;;16.67;15.30;;;6.70;99.90;;;;;;4949614;28;20355;-79
2021/11/18 02:34:43;;;;;;;16.43;15.13;;;6.70;99.90;;;;;;4951438;28;20207;-82
2021/11/18 02:37:12;;;;;;;16.00;14.70;;;6.70;99.90;;;;;;4951808;28;20216;-81
2021/11/18 02:39:40;;;;;;;16.83;15.50;;;6.70;99.90;;;;;;4953642;28;20242;-79
2021/11/18 02:42:09;;;;;;;17.10;15.70;;;6.70;99.90;;;;;;4952650;28;20719;-79
2021/11/18 02:44:37;;;;;;;17.60;16.20;;;6.70;99.90;;;;;;4950479;28;20200;-80
2021/11/18 02:47:11;;;;;;;17.60;15.90;;;6.70;99.90;;;;;;4949906;28;20290;-79
2021/11/18 02:49:39;;;;;;;17.27;15.87;;;6.70;99.90;;;;;;4949881;28;20398;-79
2021/11/18 02:52:06;;;;;;;17.67;16.27;;;6.70;99.90;;;;;;4948535;28;20274;-80
2021/11/18 02:54:34;;;;;;;17.00;15.70;;;6.70;99.90;;;;;;4953204;28;20196;-79
2021/11/18 02:57:01;;;;;;;17.00;15.70;;;6.60;99.90;;;;;;4953204;28;20261;-78
2021/11/18 02:59:28;;;;;;;16.17;14.80;;;6.70;99.90;;;;;;4947380;28;20245;-80
2021/11/18 03:01:59;;;;;;;15.90;14.70;;;6.70;99.90;;;;;;4951640;28;20220;-81
2021/11/18 03:04:26;;;;;;;16.07;14.77;;;6.70;99.90;;;;;;4950105;28;20627;-80
2021/11/18 03:06:54;;;;;;;16.20;14.80;;;6.70;99.90;;;;;;4950679;28;20207;-81
2021/11/18 03:09:21;;;;;;;15.77;14.57;;;6.70;99.90;;;;;;4954560;28;20215;-81
2021/11/18 03:11:51;;;;;;;16.10;14.83;;;6.70;99.90;;;;;;4956552;28;20244;-81
2021/11/18 03:14:18;;;;;;;17.57;16.13;;;6.60;99.90;;;;;;4956335;28;20219;-81
2021/11/18 03:16:51;;;;;;;15.80;14.50;;;6.60;99.90;;;;;;4949618;28;20238;-80
2021/11/18 03:19:22;;;;;;;16.57;15.27;;;6.70;99.90;;;;;;4950428;28;20235;-81
2021/11/18 03:21:50;;;;;;;16.33;15.07;;;6.70;99.90;;;;;;4953621;28;20231;-80
2021/11/18 03:24:18;;;;;;;17.20;15.80;;;6.60;99.90;;;;;;4961191;28;20697;-81
2021/11/18 03:26:45;;;;;;;16.83;15.63;;;6.60;99.90;;;;;;4951108;28;20688;-80
2021/11/18 03:29:25;;;;;;;17.23;15.93;;;6.60;99.90;;;;;;4959340;28;20211;-81
2021/11/18 03:31:53;;;;;;;18.67;17.27;;;6.70;99.90;;;;;;4953932;28;20263;-80
2021/11/18 03:34:24;;;;;;;17.33;15.93;;;6.70;99.90;;;;;;4953677;28;20227;-79
2021/11/18 03:36:51;;;;;;;18.57;17.07;;;6.60;99.90;;;;;;4953285;28;20227;-80
2021/11/18 03:39:20;;;;;;;18.30;16.83;;;6.60;99.90;;;;;;4952012;28;20213;-81
2021/11/18 03:41:50;;;;;;;19.73;18.13;;;6.60;99.90;;;;;;4959015;28;20230;-80
2021/11/18 03:44:38;;;;;;;19.33;17.70;;;6.60;99.90;;;;;;4959868;28;20213;-81
2021/11/18 03:47:07;;;;;;;21.40;19.47;;;6.60;99.90;;;;;;4952069;28;20200;-84
2021/11/18 03:49:38;;;;;;;19.50;17.87;;;6.60;99.90;;;;;;4974839;28;20226;-82
2021/11/18 03:52:07;;;;;;;19.47;17.77;;;6.60;99.90;;;;;;4948911;28;20615;-82
2021/11/18 03:54:36;;;;;;;21.00;19.20;;;6.50;99.90;;;;;;4947582;28;20199;-82
2021/11/18 03:57:06;;;;;;;20.50;18.70;;;6.40;99.90;;;;;;4943546;28;20215;-82
2021/11/18 03:59:39;;;;;;;19.63;17.90;;;6.40;99.90;;;;;;4957762;28;20212;-78
2021/11/18 04:02:14;;;;;;;19.10;17.40;;;6.40;99.90;;;;;;4957190;28;20232;-79
2021/11/18 04:04:44;;;;;;;19.17;17.70;;;6.50;99.90;;;;;;4951808;28;20295;-80
2021/11/18 04:07:14;;;;;;;21.43;19.63;;;6.40;99.90;;;;;;4951710;29;20211;-80
2021/11/18 04:09:43;;;;;;;21.10;19.30;;;6.50;99.90;;;;;;4952150;28;20214;-79
2021/11/18 04:12:11;;;;;;;20.53;18.87;;;6.50;99.90;;;;;;4951393;28;20702;-78
2021/11/18 04:14:40;;;;;;;21.83;19.80;;;6.50;99.90;;;;;;4952876;28;20312;-78
2021/11/18 04:17:12;;;;;;;23.03;20.97;;;6.40;99.90;;;;;;4954010;28;20643;-79
2021/11/18 04:19:39;;;;;;;21.40;19.50;;;6.40;99.90;;;;;;4942929;28;20204;-80
2021/11/18 04:22:07;;;;;;;21.70;19.80;;;6.40;99.90;;;;;;4944977;28;20229;-79
2021/11/18 04:24:40;;;;;;;22.00;20.07;;;6.50;99.90;;;;;;4947626;28;20203;-80
2021/11/18 04:27:08;;;;;;;21.30;19.50;;;6.50;99.90;;;;;;4946623;28;20199;-80
2021/11/18 04:29:36;;;;;;;22.93;20.93;;;6.50;99.90;;;;;;4950876;28;20204;-80
2021/11/18 04:32:08;;;;;;;21.43;19.50;;;6.40;99.90;;;;;;4950582;28;20227;-79
2021/11/18 04:34:36;;;;;;;22.67;20.67;;;6.40;99.90;;;;;;4953633;28;20235;-80
2021/11/18 04:37:03;;;;;;;21.30;19.40;;;6.40;99.90;;;;;;4951407;28;20217;-79
2021/11/18 04:39:31;;;;;;;22.93;20.90;;;6.40;99.90;;;;;;4950534;28;20207;-80
2021/11/18 04:41:59;;;;;;;22.73;20.73;;;6.50;99.90;;;;;;4949463;28;20609;-80
2021/11/18 04:44:26;;;;;;;23.70;21.60;;;6.50;99.90;;;;;;4948469;28;20234;-79
2021/11/18 04:46:59;;;;;;;21.40;19.43;;;6.50;99.90;;;;;;4953213;28;20224;-80
2021/11/18 04:49:27;;;;;;;22.33;20.33;;;6.50;99.90;;;;;;4951889;28;20575;-79
2021/11/18 04:51:58;;;;;;;21.50;19.70;;;6.40;99.90;;;;;;4952125;28;20704;-79
2021/11/18 04:54:25;;;;;;;22.40;20.30;;;6.40;99.90;;;;;;4954537;28;20626;-80
2021/11/18 04:56:52;;;;;;;23.40;21.20;;;6.40;99.90;;;;;;4951735;28;20225;-79
2021/11/18 04:59:19;;;;;;;24.80;22.47;;;6.40;99.90;;;;;;4955781;28;20255;-80
2021/11/18 05:01:46;;;;;;;22.70;20.57;;;6.40;99.90;;;;;;4951554;28;20295;-80
2021/11/18 05:04:13;;;;;;;23.17;21.13;;;6.40;99.90;;;;;;4952992;28;20603;-80
2021/11/18 05:06:41;;;;;;;22.30;20.50;;;6.40;99.90;;;;;;4951412;28;20224;-79
2021/11/18 05:09:10;;;;;;;21.40;19.40;;;6.40;99.90;;;;;;4951537;28;20196;-80
2021/11/18 05:11:40;;;;;;;22.53;20.33;;;6.50;99.90;;;;;;4954580;28;20263;-80
2021/11/18 05:14:08;;;;;;;21.97;20.20;;;6.50;99.90;;;;;;4953267;28;20210;-79
2021/11/18 05:16:36;;;;;;;23.23;21.03;;;6.50;99.90;;;;;;4949694;28;20196;-79
2021/11/18 05:19:04;;;;;;;24.67;22.33;;;6.50;99.90;;;;;;4949860;28;20297;-80
2021/11/18 05:21:33;;;;;;;23.60;21.53;;;6.50;99.90;;;;;;4948453;28;20206;-80
2021/11/18 05:24:05;;;;;;;17.07;14.53;;;6.50;99.90;;;;;;4948734;28;20603;-80
2021/11/18 05:26:34;;;;;;;13.77;11.30;;;6.50;99.90;;;;;;4948064;28;20290;-80
2021/11/18 05:29:03;;;;;;;16.80;12.80;;;6.50;99.90;;;;;;4952506;28;20212;-80
2021/11/18 05:31:30;;;;;;;14.13;11.93;;;6.60;99.90;;;;;;4953333;28;20259;-79
2021/11/18 05:34:07;;;;;;;18.33;13.67;;;6.60;99.90;;;;;;4953490;28;20253;-80
2021/11/18 05:36:37;;;;;;;17.20;14.70;;;6.50;99.90;;;;;;4950487;28;20199;-80
2021/11/18 05:39:06;;;;;;;17.77;13.47;;;6.60;99.90;;;;;;4950078;28;20603;-79
2021/11/18 05:41:40;;;;;;;14.87;12.67;;;6.60;99.90;;;;;;4947872;28;20226;-79
2021/11/18 05:44:07;;;;;;;17.50;15.70;;;6.60;99.90;;;;;;4946242;28;20203;-79
2021/11/18 05:46:36;;;;;;;16.77;12.67;;;6.60;99.90;;;;;;4953152;28;20206;-79
2021/11/18 05:49:06;;;;;;;16.10;13.27;;;6.60;99.90;;;;;;4954964;28;20199;-79
2021/11/18 05:51:35;;;;;;;24.63;22.40;;;6.60;99.90;;;;;;4955497;28;20224;-79
2021/11/18 05:54:07;;;;;;;23.17;21.07;;;6.60;99.90;;;;;;4955420;28;20213;-80
2021/11/18 05:56:37;;;;;;;23.10;21.10;;;6.50;99.90;;;;;;4949479;28;20207;-80
2021/11/18 05:59:04;;;;;;;25.07;22.73;;;6.60;99.90;;;;;;4949494;28;20234;-78
2021/11/18 06:01:31;;;;;;;23.23;21.10;;;6.60;99.90;;;;;;4949541;28;20284;-79
2021/11/18 06:04:00;;;;;;;25.27;22.90;;;6.60;99.90;;;;;;4949457;28;20669;-79
2021/11/18 06:06:37;;;;;;;22.80;20.80;;;6.70;99.90;;;;;;4946001;28;20629;-79
2021/11/18 06:09:04;;;;;;;24.37;21.93;;;6.60;99.90;;;;;;4951602;28;20694;-79
2021/11/18 06:11:37;;;;;;;24.17;21.97;;;6.60;99.90;;;;;;4948360;28;20269;-80
2021/11/18 06:14:08;;;;;;;25.63;23.27;;;6.60;99.90;;;;;;4946018;28;20294;-80
2021/11/18 06:16:35;;;;;;;23.07;21.07;;;6.60;99.90;;;;;;4944955;28;20227;-80
2021/11/18 06:19:05;;;;;;;23.70;21.47;;;6.60;99.90;;;;;;4944466;28;20665;-80
2021/11/18 06:21:36;;;;;;;23.67;21.47;;;6.60;99.90;;;;;;4948917;28;20233;-80
2021/11/18 06:24:05;;;;;;;23.20;21.03;;;6.50;99.90;;;;;;4948494;28;20211;-80
2021/11/18 06:26:37;;;;;;;25.00;22.63;;;6.50;99.90;;;;;;4951047;28;20206;-79
2021/11/18 06:29:05;;;;;;;25.73;23.10;;;6.50;99.90;;;;;;4949435;28;20206;-80
2021/11/18 06:31:33;;;;;;;24.27;21.93;;;6.50;99.90;;;;;;4947481;28;20205;-80
2021/11/18 06:34:01;;;;;;;24.30;21.97;;;6.50;99.90;;;;;;4947218;28;20667;-80
2021/11/18 06:36:28;;;;;;;24.37;21.97;;;6.50;99.90;;;;;;4938630;28;20697;-79
2021/11/18 06:38:56;;;;;;;25.13;22.73;;;6.50;99.90;;;;;;4947590;28;20606;-80
2021/11/18 06:41:29;;;;;;;24.43;22.13;;;6.50;99.90;;;;;;4949965;28;20198;-80
2021/11/18 06:43:58;;;;;;;24.33;22.13;;;6.50;99.90;;;;;;4947679;28;20294;-80
2021/11/18 06:46:26;;;;;;;24.23;22.03;;;6.60;99.90;;;;;;4954090;28;20258;-80
2021/11/18 06:48:53;;;;;;;23.83;21.77;;;6.60;99.90;;;;;;4950963;28;20257;-80
2021/11/18 06:51:23;;;;;;;24.93;22.63;;;6.60;99.90;;;;;;4950753;28;20208;-79
2021/11/18 06:53:53;;;;;;;22.77;20.63;;;6.60;99.90;;;;;;4951147;28;20219;-80
2021/11/18 06:56:25;;;;;;;23.67;21.47;;;6.60;99.90;;;;;;4954471;28;20785;-78
2021/11/18 06:58:52;;;;;;;25.20;22.80;;;6.60;99.90;;;;;;4953116;28;20242;-80
2021/11/18 07:01:22;;;;;;;24.17;22.07;;;6.60;99.90;;;;;;4952498;28;20207;-80
2021/11/18 07:03:49;;;;;;;23.47;21.37;;;6.70;99.90;;;;;;4951352;28;20202;-79
2021/11/18 07:06:18;;;;;;;23.87;21.77;;;6.70;99.90;;;;;;4953087;28;20203;-79
2021/11/18 07:08:48;;;;;;;23.40;21.37;;;6.70;99.90;;;;;;4952229;28;20231;-79
2021/11/18 07:11:17;;;;;;;21.40;19.60;;;6.80;99.90;;;;;;4952418;28;20236;-80
2021/11/18 07:13:44;;;;;;;22.43;20.50;;;6.80;99.90;;;;;;4954250;28;20211;-79
2021/11/18 07:16:14;;;;;;;21.90;20.00;;;6.80;99.90;;;;;;4955076;28;20680;-79
2021/11/18 07:18:44;;;;;;;22.77;20.77;;;6.80;99.90;;;;;;4951976;28;20223;-79
2021/11/18 07:21:11;;;;;;;23.23;21.13;;;6.80;99.90;;;;;;4956048;28;20219;-79
2021/11/18 07:23:39;;;;;;;23.20;21.23;;;6.90;99.90;;;;;;4953951;28;20231;-80
2021/11/18 07:26:07;;;;;;;22.60;20.57;;;6.90;99.90;;;;;;4951151;28;20627;-79
2021/11/18 07:28:37;;;;;;;22.93;20.83;;;6.90;99.90;;;;;;4950522;28;20678;-79
2021/11/18 07:31:06;;;;;;;24.03;21.83;;;7.00;99.90;;;;;;4948887;28;20216;-78
2021/11/18 07:33:41;;;;;;;24.17;22.03;;;7.00;99.90;;;;;;4951115;28;20209;-78
2021/11/18 07:36:11;;;;;;;25.20;22.93;;;6.90;99.90;;;;;;4952659;28;20211;-80
2021/11/18 07:38:38;;;;;;;23.93;21.83;;;6.90;99.90;;;;;;4951578;28;20291;-79
2021/11/18 07:41:07;;;;;;;23.80;21.60;;;7.00;99.90;;;;;;4944816;28;20258;-79
2021/11/18 07:43:37;;;;;;;23.93;21.73;;;7.00;99.90;;;;;;4958244;28;20228;-79
2021/11/18 07:46:17;;;;;;;23.87;21.77;;;7.00;99.90;;;;;;4951054;28;20590;-80
2021/11/18 07:48:53;;;;;;;22.80;20.70;;;7.10;99.90;;;;;;4950182;28;20238;-79
2021/11/18 07:51:26;;;;;;;24.67;22.37;;;7.10;99.90;;;;;;4950107;28;20199;-80
2021/11/18 07:53:54;;;;;;;23.67;21.50;;;7.10;99.90;;;;;;4949939;28;20248;-80
2021/11/18 07:56:23;;;;;;;24.13;21.67;;;7.20;99.90;;;;;;4953831;28;20212;-78
2021/11/18 07:58:52;;;;;;;22.20;20.03;;;7.20;99.90;;;;;;4949703;28;20225;-79
2021/11/18 08:01:20;;;;;;;18.50;16.30;;;7.20;99.90;;;;;;4947527;28;20208;-80
2021/11/18 08:03:48;;;;;;;17.60;15.63;;;7.20;99.90;;;;;;4943631;28;20207;-80
2021/11/18 08:06:20;;;;;;;18.10;16.33;;;7.30;99.90;;;;;;4950226;28;20208;-79
2021/11/18 08:08:54;;;;;;;18.33;14.53;;;7.30;99.90;;;;;;4945754;28;20229;-79
2021/11/18 08:11:26;;;;;;;18.67;14.77;;;7.40;99.90;;;;;;4952708;28;20512;-80
2021/11/18 08:13:55;;;;;;;19.37;16.33;;;7.30;99.90;;;;;;4950565;28;20212;-79
2021/11/18 08:16:23;;;;;;;16.67;13.07;;;7.40;99.90;;;;;;4949316;28;20210;-78
2021/11/18 08:18:56;;;;;;;17.90;14.60;;;7.30;99.90;;;;;;4949337;28;20279;-80
2021/11/18 08:21:23;;;;;;;16.63;13.77;;;7.40;99.90;;;;;;4948126;28;20269;-79
2021/11/18 08:23:53;;;;;;;17.60;15.73;;;7.50;99.90;;;;;;4949316;28;20207;-80
2021/11/18 08:26:25;;;;;;;22.57;20.57;;;7.60;99.90;;;;;;4951537;28;20687;-79
2021/11/18 08:28:52;;;;;;;21.53;19.57;;;7.60;99.90;;;;;;4949651;28;20217;-80
2021/11/18 08:31:20;;;;;;;14.93;11.60;;;7.80;99.90;;;;;;4949054;28;20203;-80
2021/11/18 08:34:06;;;;;;;13.97;11.23;;;7.80;99.90;;;;;;4951046;28;20211;-79
2021/11/18 08:36:37;;;;;;;13.67;11.30;;;8.00;99.90;;;;;;4951201;28;20250;-79
2021/11/18 08:39:07;;;;;;;15.17;11.27;;;8.00;99.90;;;;;;4950933;28;20251;-80
2021/11/18 08:41:35;;;;;;;13.13;11.07;;;8.10;99.90;;;;;;4950781;29;20209;-80
2021/11/18 08:44:04;;;;;;;12.33;10.40;;;8.10;99.90;;;;;;4947650;28;20212;-80
2021/11/18 08:46:31;;;;;;;14.23;11.10;;;8.20;99.90;;;;;;4957371;28;20205;-79
2021/11/18 08:49:00;;;;;;;13.33;11.97;;;8.30;99.90;;;;;;4949216;28;20201;-80
2021/11/18 08:51:34;;;;;;;13.57;11.77;;;8.40;99.90;;;;;;4941302;28;20214;-80
2021/11/18 08:54:05;;;;;;;18.83;17.17;;;8.50;99.90;;;;;;4953562;28;20212;-80
2021/11/18 08:56:34;;;;;;;17.10;15.40;;;8.50;99.90;;;;;;4951762;28;20198;-80
2021/11/18 08:59:01;;;;;;;16.80;15.30;;;8.60;99.90;;;;;;4950029;29;20264;-80
2021/11/18 09:01:32;;;;;;;14.33;12.83;;;8.70;99.90;;;;;;4945976;28;20223;-79
2021/11/18 09:03:59;;;;;;;15.90;14.30;;;8.80;99.90;;;;;;4952519;28;20209;-80
2021/11/18 09:06:27;;;;;;;16.93;15.33;;;9.00;99.90;;;;;;4958385;28;20202;-80
2021/11/18 09:08:57;;;;;;;12.87;10.20;;;9.20;99.90;;;;;;4949978;28;20749;-79
2021/11/18 09:11:26;;;;;;;20.97;19.17;;;9.30;99.90;;;;;;4949063;28;20618;-80
2021/11/18 09:13:56;;;;;;;21.90;20.13;;;9.40;99.90;;;;;;4948695;28;20199;-79
2021/11/18 09:16:27;;;;;;;21.10;19.40;;;9.40;99.90;;;;;;4951520;28;20202;-79
2021/11/18 09:19:08;;;;;;;20.97;19.13;;;9.30;99.90;;;;;;4950571;28;20226;-80
2021/11/18 09:21:36;;;;;;;21.97;20.10;;;9.20;99.90;;;;;;4946228;28;20583;-80
2021/11/18 09:24:07;;;;;;;21.17;19.27;;;9.10;99.90;;;;;;4945976;28;20228;-80
2021/11/18 09:26:38;;;;;;;20.83;19.23;;;9.10;99.90;;;;;;4945141;28;20199;-81
2021/11/18 09:29:08;;;;;;;20.73;19.07;;;8.90;99.90;;;;;;4949557;28;20222;-78
2021/11/18 09:31:59;;;;;;;20.47;18.73;;;9.00;99.90;;;;;;4949928;28;20322;-79
2021/11/18 09:34:27;;;;;;;19.80;18.23;;;9.00;99.90;;;;;;4948456;28;20748;-80
2021/11/18 09:36:55;;;;;;;19.57;17.97;;;9.00;99.90;;;;;;4948011;28;20207;-78
2021/11/18 09:39:25;;;;;;;19.83;18.23;;;9.00;99.90;;;;;;4951642;28;20297;-78
2021/11/18 09:42:03;;;;;;;19.40;17.80;;;9.10;99.90;;;;;;4949144;28;20224;-79
2021/11/18 09:45:05;;;;;;;20.77;19.07;;;9.10;99.90;;;;;;4946808;28;20207;-80
2021/11/18 09:48:04;;;;;;;19.63;18.03;;;9.10;99.90;;;;;;4952737;28;20557;-79
2021/11/18 09:50:46;;;;;;;19.93;18.33;;;9.00;99.90;;;;;;4952849;28;20241;-80
2021/11/18 09:53:27;;;;;;;19.40;17.80;;;9.10;99.90;;;;;;4952451;28;20236;-79
2021/11/18 09:56:08;;;;;;;18.50;17.00;;;9.10;99.90;;;;;;4949063;28;20200;-80
2021/11/18 09:58:56;;;;;;;18.80;17.27;;;9.20;99.90;;;;;;4946009;28;20210;-80
2021/11/18 10:02:08;;;;;;;18.60;17.20;;;9.40;99.90;;;;;;4946738;28;20218;-78
2021/11/18 10:04:41;;;;;;;18.50;17.10;;;9.50;99.90;;;;;;4941353;28;20198;-80
2021/11/18 10:07:18;;;;;;;17.80;16.50;;;9.60;99.90;;;;;;4947501;28;20199;-80
2021/11/18 10:09:57;;;;;;;18.67;17.27;;;9.50;99.90;;;;;;4948999;28;20261;-80
2021/11/18 10:12:34;;;;;;;18.73;17.10;;;9.40;99.90;;;;;;4950212;28;20737;-79
2021/11/18 10:15:06;;;;;;;19.13;17.50;;;9.20;99.90;;;;;;4949144;28;20679;-80
2021/11/18 10:17:38;;;;;;;19.73;18.13;;;9.10;99.90;;;;;;4949490;28;20207;-80
2021/11/18 10:20:23;;;;;;;19.20;17.50;;;9.10;99.90;;;;;;4939206;28;20254;-80
2021/11/18 10:22:53;;;;;;;17.33;15.87;;;9.10;99.90;;;;;;4948573;28;20574;-79
2021/11/18 10:25:24;;;;;;;17.23;15.93;;;9.00;99.90;;;;;;4946877;28;20195;-79
2021/11/18 10:27:55;;;;;;;17.50;16.10;;;9.20;99.90;;;;;;4948046;28;20262;-80
2021/11/18 10:30:38;;;;;;;17.27;15.80;;;9.30;99.90;;;;;;4954229;28;20257;-80
2021/11/18 10:33:10;;;;;;;16.27;15.17;;;9.40;99.90;;;;;;4953268;28;20281;-80
2021/11/18 10:35:41;;;;;;;16.80;15.60;;;9.60;99.90;;;;;;4949797;28;20194;-80
2021/11/18 10:38:18;;;;;;;15.87;14.77;;;9.80;99.90;;;;;;4949384;28;20211;-80
2021/11/18 10:40:57;;;;;;;16.47;15.27;;;10.00;99.90;;;;;;4954233;28;20222;-80
2021/11/18 10:43:27;;;;;;;16.33;15.13;;;10.10;99.90;;;;;;4953723;28;20218;-80
2021/11/18 10:46:11;;;;;;;17.23;15.93;;;10.30;99.90;;;;;;4952193;28;20214;-80
2021/11/18 10:48:43;;;;;;;16.20;15.10;;;10.40;99.90;;;;;;4945296;28;20206;-79
2021/11/18 10:51:12;;;;;;;17.17;15.97;;;10.40;99.90;;;;;;4950552;28;20255;-80
2021/11/18 10:53:51;;;;;;;16.57;15.37;;;10.50;99.90;;;;;;4953066;28;20235;-80
2021/11/18 10:56:20;;;;;;;15.60;14.50;;;10.50;99.90;;;;;;4955817;28;20194;-79
2021/11/18 10:59:02;;;;;;;17.20;16.00;;;10.50;99.90;;;;;;4951579;29;20194;-80
2021/11/18 11:01:37;;;;;;;15.33;14.33;;;10.30;99.90;;;;;;4949284;28;20254;-80
2021/11/18 11:04:08;;;;;;;16.63;15.53;;;10.20;99.90;;;;;;4940501;28;20203;-80
2021/11/18 11:06:50;;;;;;;16.30;15.20;;;10.20;99.90;;;;;;4953316;28;20258;-80
2021/11/18 11:09:19;;;;;;;15.37;14.37;;;10.30;99.90;;;;;;4951532;28;20265;-80
2021/11/18 11:11:58;;;;;;;16.60;15.50;;;10.40;99.90;;;;;;4949572;28;20718;-80
2021/11/18 11:14:50;;;;;;;17.33;16.13;;;10.40;99.90;;;;;;4950694;28;20584;-80
2021/11/18 11:17:36;;;;;;;16.00;14.90;;;10.50;99.90;;;;;;4949035;28;20199;-80
2021/11/18 11:20:09;;;;;;;15.77;14.70;;;10.70;99.90;;;;;;4952711;28;20726;-80
2021/11/18 11:22:43;;;;;;;14.77;13.80;;;10.80;99.90;;;;;;4956155;28;20282;-80
2021/11/18 11:25:26;;;;;;;15.03;14.03;;;10.80;99.90;;;;;;4950558;28;20195;-79
2021/11/18 11:28:25;;;;;;;13.90;13.10;;;10.80;99.90;;;;;;4953282;28;20200;-80
2021/11/18 11:31:04;;;;;;;12.87;12.07;;;10.90;99.90;;;;;;4949224;28;20222;-80
2021/11/18 11:33:37;;;;;;;13.13;12.33;;;10.90;99.90;;;;;;4947258;28;20642;-80
2021/11/18 11:36:12;;;;;;;12.80;12.10;;;10.80;99.90;;;;;;4955075;29;20249;-80
2021/11/18 11:38:57;;;;;;;12.43;11.73;;;10.60;99.90;;;;;;4953924;28;20198;-79
2021/11/18 11:42:00;;;;;;;12.30;11.60;;;10.70;99.90;;;;;;4952866;28;20234;-81
2021/11/18 11:44:37;;;;;;;13.00;12.20;;;10.70;99.90;;;;;;4951693;28;20257;-80
2021/11/18 11:47:07;;;;;;;12.77;11.97;;;10.60;99.90;;;;;;4952695;28;20199;-80
2021/11/18 11:49:37;;;;;;;12.70;11.90;;;10.70;99.90;;;;;;4953176;28;20711;-80
2021/11/18 11:52:32;;;;;;;13.10;12.23;;;10.60;99.90;;;;;;4953084;28;20226;-80
2021/11/18 11:55:12;;;;;;;13.50;12.50;;;10.50;99.90;;;;;;4951528;28;20590;-80
2021/11/18 11:57:49;;;;;;;13.23;12.37;;;10.50;99.90;;;;;;4943221;28;20199;-79
2021/11/18 12:00:23;;;;;;;14.20;13.37;;;10.50;99.90;;;;;;4957167;28;20210;-80
2021/11/18 12:03:02;;;;;;;13.17;12.37;;;10.60;99.90;;;;;;4953994;29;20290;-80
2021/11/18 12:05:33;;;;;;;13.00;12.20;;;10.60;99.90;;;;;;4947808;28;20199;-80
2021/11/18 12:08:07;;;;;;;13.43;12.60;;;10.70;99.90;;;;;;4955742;28;20198;-80
2021/11/18 12:10:40;;;;;;;13.87;12.97;;;10.80;99.90;;;;;;4950209;28;20224;-80
2021/11/18 12:13:16;;;;;;;13.67;12.80;;;10.70;99.90;;;;;;4952394;28;20228;-80
2021/11/18 12:15:47;;;;;;;13.07;12.27;;;10.70;99.90;;;;;;4951216;28;20678;-80
2021/11/18 12:18:25;;;;;;;13.27;12.47;;;10.70;99.90;;;;;;4950869;28;20203;-80
2021/11/18 12:20:52;;;;;;;13.03;12.30;;;10.90;99.90;;;;;;4953978;28;20217;-80
2021/11/18 12:23:21;;;;;;;13.33;12.53;;;10.90;99.90;;;;;;4955977;28;20246;-79
2021/11/18 12:26:06;;;;;;;14.30;13.40;;;10.90;99.90;;;;;;4951931;28;20206;-80
2021/11/18 12:28:37;;;;;;;14.70;13.67;;;10.70;99.90;;;;;;4950651;28;20297;-79
2021/11/18 12:31:21;;;;;;;13.50;12.70;;;10.70;99.90;;;;;;4950111;28;20718;-80
2021/11/18 12:33:53;;;;;;;13.83;12.93;;;10.60;99.90;;;;;;4948812;28;20211;-80
2021/11/18 12:36:25;;;;;;;14.00;13.10;;;10.50;99.90;;;;;;4952944;28;20265;-79
2021/11/18 12:39:29;;;;;;;13.90;13.00;;;10.50;99.90;;;;;;4953022;28;20220;-80
2021/11/18 12:42:25;;;;;;;13.40;12.60;;;10.50;99.90;;;;;;4948901;28;20702;-80
2021/11/18 12:45:00;;;;;;;13.40;12.60;;;10.50;99.90;;;;;;4948205;28;20257;-80
2021/11/18 12:48:00;;;;;;;14.07;13.07;;;10.60;99.90;;;;;;4950531;28;20198;-79
2021/11/18 12:50:43;;;;;;;13.47;12.57;;;10.50;99.90;;;;;;4948047;28;20282;-80
2021/11/18 12:53:30;;;;;;;13.50;12.60;;;10.60;99.90;;;;;;4945991;28;20234;-79
2021/11/18 12:56:18;;;;;;;13.67;12.77;;;10.50;99.90;;;;;;4947239;28;20211;-80
2021/11/18 12:58:52;;;;;;;13.87;12.90;;;10.50;99.90;;;;;;4949185;28;20204;-81
2021/11/18 13:01:51;;;;;;;13.87;13.00;;;10.50;99.90;;;;;;4950293;28;20219;-80